Time;durP1;ratioP1;P1;durP2;ratioP2;P2;SDS_P1;SDS_P2;PMS_P1;PMS_P2;Temp;Humidity;BMP_temperature;BMP_pressure;BME280_temperature;BME280_humidity;BME280_pressure;Samples;Min_cycle;Max_cycle;Signal;HPM_P1;HPM_P2
2022/10/03 00:02:08;;;;;;;;;;;;;9.80;97161.00;;;;111102;1248;41631;-60
2022/10/03 00:05:11;;;;;;;;;;;;;9.80;97158.40;;;;111260;1248;41259;-60
2022/10/03 00:07:46;;;;;;;;;;;;;9.80;97158.40;;;;110733;1255;41218;-59
2022/10/03 00:10:27;;;;;;;;;;;;;9.80;97150.60;;;;111019;1247;41137;-60
2022/10/03 00:13:00;;;;;;;;;;;;;9.80;97136.80;;;;111177;1247;41138;-61
2022/10/03 00:15:34;;;;;;;;;;;;;9.80;97134.20;;;;111153;1248;42476;-62
2022/10/03 00:18:12;;;;;;;;;;;;;9.80;97134.20;;;;111114;1250;41127;-61
2022/10/03 00:20:44;;;;;;;;;;;;;9.80;97124.60;;;;111062;1249;41223;-59
2022/10/03 00:23:16;;;;;;;;;;;;;9.80;97116.20;;;;111113;1248;41955;-61
2022/10/03 00:25:54;;;;;;;;;;;;;9.80;97116.60;;;;111094;1248;41964;-60
2022/10/03 00:28:24;;;;;;;;;;;;;9.80;97116.40;;;;111091;1247;42176;-60
2022/10/03 00:31:01;;;;;;;;;;;;;9.80;97119.60;;;;111121;1249;41370;-60
2022/10/03 00:33:33;;;;;;;;;;;;;9.78;97115.80;;;;111064;1250;41761;-61
2022/10/03 00:36:23;;;;;;;;;;;;;9.80;97125.00;;;;111066;1247;41413;-60
2022/10/03 00:38:52;;;;;;;;;;;;;9.74;97110.40;;;;111085;1248;41446;-60
2022/10/03 00:41:29;;;;;;;;;;;;;9.70;97101.20;;;;111069;1248;41130;-60
2022/10/03 00:44:16;;;;;;;;;;;;;9.70;97107.40;;;;111172;1248;41701;-59
2022/10/03 00:47:05;;;;;;;;;;;;;9.70;97108.60;;;;111221;1251;42039;-59
2022/10/03 00:49:51;;;;;;;;;;;;;9.70;97119.20;;;;111110;1247;41596;-59
2022/10/03 00:52:28;;;;;;;;;;;;;9.70;97125.20;;;;111123;1249;41557;-58
2022/10/03 00:55:02;;;;;;;;;;;;;9.68;97129.20;;;;111136;1248;41605;-60
2022/10/03 00:57:34;;;;;;;;;;;;;9.60;97123.20;;;;111092;1248;41621;-59
2022/10/03 01:00:14;;;;;;;;;;;;;9.50;97122.00;;;;111081;1248;41136;-61
2022/10/03 01:02:59;;;;;;;;;;;;;9.50;97119.60;;;;111110;1249;41140;-59
2022/10/03 01:05:36;;;;;;;;;;;;;9.50;97116.00;;;;111063;1248;41842;-59
2022/10/03 01:08:28;;;;;;;;;;;;;9.50;97112.80;;;;111008;1250;41263;-60
2022/10/03 01:11:07;;;;;;;;;;;;;9.54;97104.40;;;;111014;1250;41258;-60
2022/10/03 01:13:55;;;;;;;;;;;;;9.56;97110.80;;;;110837;1248;41572;-60
2022/10/03 01:16:26;;;;;;;;;;;;;9.58;97113.20;;;;110969;1250;41545;-60
2022/10/03 01:19:08;;;;;;;;;;;;;9.50;97114.60;;;;111067;1249;42020;-60
2022/10/03 01:21:40;;;;;;;;;;;;;9.52;97106.40;;;;110748;1248;41628;-61
2022/10/03 01:24:15;;;;;;;;;;;;;9.52;97106.40;;;;111018;1249;42072;-61
2022/10/03 01:26:57;;;;;;;;;;;;;9.50;97099.40;;;;111116;1248;41182;-61
2022/10/03 01:32:33;;;;;;;;;;;;;9.50;97092.20;;;;110740;1249;41266;-61
2022/10/03 01:35:01;;;;;;;;;;;;;9.50;97085.60;;;;111049;1250;41171;-60
2022/10/03 01:37:34;;;;;;;;;;;;;9.50;97084.00;;;;111152;1247;41285;-60
2022/10/03 01:40:21;;;;;;;;;;;;;9.50;97074.60;;;;111085;1248;41198;-61
2022/10/03 01:42:50;;;;;;;;;;;;;9.40;97077.00;;;;111059;1247;42075;-60
2022/10/03 01:45:42;;;;;;;;;;;;;9.40;97081.40;;;;111089;1248;41135;-60
2022/10/03 01:48:28;;;;;;;;;;;;;9.40;97079.00;;;;111037;1248;41149;-61
2022/10/03 01:51:01;;;;;;;;;;;;;9.40;97072.60;;;;111013;1250;41149;-61
2022/10/03 01:53:48;;;;;;;;;;;;;9.40;97076.20;;;;110839;1250;41139;-61
2022/10/03 01:56:17;;;;;;;;;;;;;9.38;97082.00;;;;111058;1250;41175;-61
2022/10/03 01:59:12;;;;;;;;;;;;;9.36;97083.60;;;;111151;1247;41140;-60
2022/10/03 02:01:53;;;;;;;;;;;;;9.40;97089.40;;;;111049;1249;42481;-60
2022/10/03 02:04:30;;;;;;;;;;;;;9.40;97089.80;;;;111117;1249;41245;-60
2022/10/03 02:07:04;;;;;;;;;;;;;9.40;97089.60;;;;111023;1250;41166;-60
2022/10/03 02:09:36;;;;;;;;;;;;;9.40;97084.40;;;;111026;1250;41655;-61
2022/10/03 02:12:08;;;;;;;;;;;;;9.40;97087.60;;;;111060;1249;42119;-60
2022/10/03 02:14:42;;;;;;;;;;;;;9.40;97077.80;;;;111085;1249;41170;-60
2022/10/03 02:17:17;;;;;;;;;;;;;9.46;97072.00;;;;111128;1248;41155;-60
2022/10/03 02:20:06;;;;;;;;;;;;;9.40;97068.00;;;;111000;1247;41252;-60
2022/10/03 02:22:38;;;;;;;;;;;;;9.42;97071.00;;;;111035;1247;41168;-60
2022/10/03 02:25:11;;;;;;;;;;;;;9.40;97075.60;;;;110709;1251;41165;-61
2022/10/03 02:27:43;;;;;;;;;;;;;9.40;97065.60;;;;110746;1250;41184;-60
2022/10/03 02:30:29;;;;;;;;;;;;;9.40;97059.20;;;;110900;1248;42233;-61
2022/10/03 02:32:58;;;;;;;;;;;;;9.40;97059.40;;;;111032;1247;41148;-60
2022/10/03 02:35:45;;;;;;;;;;;;;9.48;97056.80;;;;111084;1248;41229;-61
2022/10/03 02:38:25;;;;;;;;;;;;;9.50;97060.20;;;;111108;1248;41137;-60
2022/10/03 02:41:17;;;;;;;;;;;;;9.50;97061.60;;;;111071;1249;41414;-60
2022/10/03 02:44:10;;;;;;;;;;;;;9.60;97050.80;;;;110854;1251;41320;-61
2022/10/03 02:46:48;;;;;;;;;;;;;9.60;97046.00;;;;111098;1248;41340;-60
2022/10/03 02:49:22;;;;;;;;;;;;;9.60;97046.00;;;;111161;1247;41622;-60
2022/10/03 02:51:58;;;;;;;;;;;;;9.60;97044.40;;;;111130;1247;41611;-61
2022/10/03 02:54:32;;;;;;;;;;;;;9.70;97036.80;;;;111373;1247;41657;-61
2022/10/03 02:57:21;;;;;;;;;;;;;9.70;97040.00;;;;111151;1247;41171;-59
2022/10/03 03:00:08;;;;;;;;;;;;;9.70;97042.60;;;;111143;1248;41152;-61
2022/10/03 03:02:39;;;;;;;;;;;;;9.70;97044.40;;;;111153;1249;41185;-60
2022/10/03 03:05:26;;;;;;;;;;;;;9.64;97041.20;;;;111316;1248;42577;-60
2022/10/03 03:08:14;;;;;;;;;;;;;9.60;97042.60;;;;111159;1247;42119;-59
2022/10/03 03:10:59;;;;;;;;;;;;;9.66;97042.40;;;;111084;1247;41145;-59
2022/10/03 03:13:35;;;;;;;;;;;;;9.70;97035.40;;;;111028;1248;41186;-59
2022/10/03 03:16:23;;;;;;;;;;;;;9.70;97036.20;;;;111092;1247;41270;-59
2022/10/03 03:19:15;;;;;;;;;;;;;9.70;97028.00;;;;111123;1247;41702;-60
2022/10/03 03:22:04;;;;;;;;;;;;;9.70;97016.80;;;;111053;1248;41240;-60
2022/10/03 03:24:32;;;;;;;;;;;;;9.70;97008.40;;;;111106;1247;41168;-60
2022/10/03 03:27:30;;;;;;;;;;;;;9.70;97009.00;;;;111016;1249;42552;-60
2022/10/03 03:30:04;;;;;;;;;;;;;9.70;97013.80;;;;110359;1250;41184;-59
2022/10/03 03:32:37;;;;;;;;;;;;;9.70;97009.80;;;;110743;1248;41240;-59
2022/10/03 03:35:17;;;;;;;;;;;;;9.70;97009.60;;;;111067;1247;41136;-60
2022/10/03 03:38:09;;;;;;;;;;;;;9.80;96999.40;;;;111036;1247;41588;-60
2022/10/03 03:40:49;;;;;;;;;;;;;9.80;96990.00;;;;111038;1247;41192;-60
2022/10/03 03:43:20;;;;;;;;;;;;;9.80;96980.60;;;;111170;1247;41193;-59
2022/10/03 03:45:53;;;;;;;;;;;;;9.86;96980.00;;;;111237;1248;41187;-60
2022/10/03 03:48:42;;;;;;;;;;;;;9.90;96982.40;;;;111046;1247;41261;-60
2022/10/03 03:51:15;;;;;;;;;;;;;9.90;96980.20;;;;111133;1247;41273;-60
2022/10/03 03:53:43;;;;;;;;;;;;;9.90;96973.20;;;;111210;1247;41128;-60
2022/10/03 03:56:17;;;;;;;;;;;;;10.00;96973.20;;;;111102;1247;41177;-60
2022/10/03 03:59:04;;;;;;;;;;;;;10.00;96969.40;;;;111094;1248;41707;-60
2022/10/03 04:01:43;;;;;;;;;;;;;10.00;96974.20;;;;111087;1248;41259;-60
2022/10/03 04:04:20;;;;;;;;;;;;;10.02;96976.40;;;;111145;1247;42509;-60
2022/10/03 04:06:51;;;;;;;;;;;;;10.10;96984.00;;;;111120;1248;41138;-60
2022/10/03 04:09:54;;;;;;;;;;;;;10.10;96994.00;;;;111144;1247;41154;-60
2022/10/03 04:12:31;;;;;;;;;;;;;10.10;97002.80;;;;110591;1254;41152;-60
2022/10/03 04:15:02;;;;;;;;;;;;;10.10;97009.00;;;;111106;1247;41269;-60
2022/10/03 04:20:44;;;;;;;;;;;;;10.00;97000.80;;;;111057;1247;41307;-61
2022/10/03 04:23:18;;;;;;;;;;;;;10.00;97018.40;;;;110802;1248;41526;-62
2022/10/03 04:26:06;;;;;;;;;;;;;10.00;97032.40;;;;110997;1248;41150;-61
2022/10/03 04:28:52;;;;;;;;;;;;;9.94;97039.00;;;;111130;1248;41171;-61
2022/10/03 04:31:25;;;;;;;;;;;;;9.90;97031.00;;;;111237;1247;41492;-60
2022/10/03 04:33:53;;;;;;;;;;;;;9.90;97021.20;;;;111122;1248;41129;-60
2022/10/03 04:36:21;;;;;;;;;;;;;9.90;97019.00;;;;111025;1247;41627;-60
2022/10/03 04:38:55;;;;;;;;;;;;;10.00;97012.40;;;;110987;1248;41160;-60
2022/10/03 04:41:37;;;;;;;;;;;;;10.00;97016.60;;;;111067;1248;41152;-60
2022/10/03 04:44:16;;;;;;;;;;;;;10.10;97011.60;;;;111132;1247;41137;-59
2022/10/03 04:47:28;;;;;;;;;;;;;10.10;97015.00;;;;111365;1247;41680;-60
2022/10/03 04:50:18;;;;;;;;;;;;;10.20;97017.20;;;;110809;1250;41191;-60
2022/10/03 04:53:10;;;;;;;;;;;;;10.20;97008.00;;;;111229;1247;41623;-59
2022/10/03 04:55:37;;;;;;;;;;;;;10.20;97003.20;;;;110835;1248;41258;-59
2022/10/03 04:58:19;;;;;;;;;;;;;10.20;97001.00;;;;111041;1247;41246;-59
2022/10/03 05:00:54;;;;;;;;;;;;;10.22;96995.80;;;;111053;1248;41150;-59
2022/10/03 05:03:35;;;;;;;;;;;;;10.30;96996.60;;;;111056;1248;41226;-61
2022/10/03 05:06:24;;;;;;;;;;;;;10.30;96993.80;;;;110999;1248;41138;-60
2022/10/03 05:09:09;;;;;;;;;;;;;10.32;96992.60;;;;110867;1247;41824;-60
2022/10/03 05:11:55;;;;;;;;;;;;;10.40;96987.00;;;;110863;1249;41925;-60
2022/10/03 05:14:41;;;;;;;;;;;;;10.40;96981.60;;;;110792;1250;43156;-60
2022/10/03 05:17:10;;;;;;;;;;;;;10.50;96976.20;;;;111202;1247;42482;-60
2022/10/03 05:19:37;;;;;;;;;;;;;10.50;96974.40;;;;111179;1248;41252;-60
2022/10/03 05:22:15;;;;;;;;;;;;;10.60;96983.40;;;;111083;1250;41133;-58
2022/10/03 05:24:48;;;;;;;;;;;;;10.66;96999.80;;;;111114;1248;42310;-60
2022/10/03 05:27:22;;;;;;;;;;;;;10.70;97008.60;;;;111041;1248;41312;-60
2022/10/03 05:29:53;;;;;;;;;;;;;10.70;97003.60;;;;110753;1247;41162;-60
2022/10/03 05:32:38;;;;;;;;;;;;;10.70;96996.20;;;;111131;1248;41373;-60
2022/10/03 05:35:16;;;;;;;;;;;;;10.60;96988.60;;;;111205;1247;41159;-60
2022/10/03 05:37:56;;;;;;;;;;;;;10.50;97001.20;;;;110809;1247;303209;-59
2022/10/03 05:40:24;;;;;;;;;;;;;10.42;97013.00;;;;111045;1247;41149;-59
2022/10/03 05:42:58;;;;;;;;;;;;;10.34;97031.60;;;;111131;1247;42455;-59
2022/10/03 05:45:44;;;;;;;;;;;;;10.30;97041.40;;;;111110;1248;41766;-60
2022/10/03 05:48:14;;;;;;;;;;;;;10.30;97038.80;;;;111009;1247;41233;-60
2022/10/03 05:51:01;;;;;;;;;;;;;10.30;97029.00;;;;111056;1248;42345;-60
2022/10/03 05:53:32;;;;;;;;;;;;;10.22;97017.60;;;;111068;1247;41350;-60
2022/10/03 05:56:00;;;;;;;;;;;;;10.30;97013.20;;;;111043;1247;41306;-60
2022/10/03 05:58:40;;;;;;;;;;;;;10.30;97021.20;;;;111097;1247;41261;-60
2022/10/03 06:01:10;;;;;;;;;;;;;10.32;97021.60;;;;111065;1248;41132;-60
2022/10/03 06:03:47;;;;;;;;;;;;;10.40;97024.40;;;;111073;1248;41713;-61
2022/10/03 06:06:45;;;;;;;;;;;;;10.50;97020.60;;;;111144;1247;42310;-60
2022/10/03 06:09:31;;;;;;;;;;;;;10.50;97028.00;;;;111065;1250;41136;-60
2022/10/03 06:12:13;;;;;;;;;;;;;10.60;97031.80;;;;111097;1248;41246;-60
2022/10/03 06:14:49;;;;;;;;;;;;;10.64;97037.60;;;;111098;1247;41348;-60
2022/10/03 06:17:24;;;;;;;;;;;;;10.70;97038.00;;;;111141;1247;42016;-60
2022/10/03 06:20:15;;;;;;;;;;;;;10.70;97038.40;;;;110892;1249;41207;-60
2022/10/03 06:22:48;;;;;;;;;;;;;10.70;97038.40;;;;111148;1245;41340;-60
2022/10/03 06:25:33;;;;;;;;;;;;;10.70;97040.00;;;;111088;1249;41141;-60
2022/10/03 06:28:12;;;;;;;;;;;;;10.76;97045.60;;;;111033;1248;41157;-59
2022/10/03 06:30:43;;;;;;;;;;;;;10.80;97044.20;;;;110788;1249;41260;-60
2022/10/03 06:33:29;;;;;;;;;;;;;10.80;97049.60;;;;111154;1247;41608;-59
2022/10/03 06:36:18;;;;;;;;;;;;;10.94;97047.00;;;;111163;1245;41192;-59
2022/10/03 06:38:52;;;;;;;;;;;;;11.10;97045.60;;;;110984;1248;41281;-59
2022/10/03 06:41:19;;;;;;;;;;;;;11.16;97048.40;;;;111096;1248;41653;-59
2022/10/03 06:44:01;;;;;;;;;;;;;11.20;97049.40;;;;111087;1247;41372;-59
2022/10/03 06:46:38;;;;;;;;;;;;;11.30;97054.20;;;;111070;1248;41258;-59
2022/10/03 06:49:20;;;;;;;;;;;;;11.50;97066.80;;;;111184;1247;42207;-60
2022/10/03 06:51:53;;;;;;;;;;;;;11.62;97063.60;;;;111074;1247;41729;-59
2022/10/03 06:54:46;;;;;;;;;;;;;11.70;97058.60;;;;111149;1248;41152;-59
2022/10/03 06:57:13;;;;;;;;;;;;;11.80;97065.20;;;;111113;1249;41249;-59
2022/10/03 06:59:44;;;;;;;;;;;;;11.86;97065.40;;;;111187;1247;41927;-59
2022/10/03 07:02:31;;;;;;;;;;;;;11.90;97072.40;;;;111150;1247;41250;-59
2022/10/03 07:05:18;;;;;;;;;;;;;11.96;97075.80;;;;111210;1246;42008;-60
2022/10/03 07:07:54;;;;;;;;;;;;;11.90;97076.80;;;;111169;1247;41202;-59
2022/10/03 07:10:27;;;;;;;;;;;;;11.88;97074.60;;;;111079;1248;41608;-59
2022/10/03 07:13:14;;;;;;;;;;;;;11.90;97071.40;;;;111082;1247;41293;-60
2022/10/03 07:15:48;;;;;;;;;;;;;12.10;97071.20;;;;111108;1247;41621;-60
2022/10/03 07:19:00;;;;;;;;;;;;;12.52;97070.60;;;;111077;1247;41164;-61
2022/10/03 07:21:30;;;;;;;;;;;;;12.98;97065.80;;;;111338;1247;41640;-59
2022/10/03 07:24:04;;;;;;;;;;;;;13.38;97073.40;;;;111110;1248;41529;-60
2022/10/03 07:26:32;;;;;;;;;;;;;13.70;97061.20;;;;111139;1249;42196;-61
2022/10/03 07:29:03;;;;;;;;;;;;;13.96;97059.40;;;;111135;1247;41228;-60
2022/10/03 07:31:35;;;;;;;;;;;;;14.20;97065.20;;;;111103;1247;41166;-58
2022/10/03 07:34:26;;;;;;;;;;;;;14.50;97067.80;;;;111118;1247;41519;-60
2022/10/03 07:39:51;;;;;;;;;;;;;15.20;97063.80;;;;111029;1249;42073;-60
2022/10/03 07:42:25;;;;;;;;;;;;;15.46;97057.60;;;;111046;1249;41337;-60
2022/10/03 07:45:19;;;;;;;;;;;;;15.60;97069.40;;;;110786;1250;42430;-60
2022/10/03 07:47:47;;;;;;;;;;;;;15.70;97060.60;;;;111167;1249;41143;-60
2022/10/03 07:50:36;;;;;;;;;;;;;15.60;97060.20;;;;110746;1250;41264;-60
2022/10/03 07:53:16;;;;;;;;;;;;;15.58;97056.80;;;;110855;1249;41147;-59
2022/10/03 07:56:01;;;;;;;;;;;;;15.80;97057.00;;;;111238;1248;41146;-60
2022/10/03 07:58:44;;;;;;;;;;;;;16.14;97068.20;;;;111070;1248;41170;-60
2022/10/03 08:01:41;;;;;;;;;;;;;16.10;97066.60;;;;110894;1250;41127;-59
2022/10/03 08:04:09;;;;;;;;;;;;;16.10;97066.00;;;;110990;1248;41754;-60
2022/10/03 08:06:44;;;;;;;;;;;;;16.00;97070.00;;;;110807;1251;41910;-60
2022/10/03 08:09:11;;;;;;;;;;;;;16.10;97063.20;;;;110879;1248;41185;-59
2022/10/03 08:11:57;;;;;;;;;;;;;16.06;97062.60;;;;111113;1247;41265;-59
2022/10/03 08:14:31;;;;;;;;;;;;;16.10;97062.00;;;;110588;1250;41161;-59
2022/10/03 08:17:16;;;;;;;;;;;;;16.30;97045.60;;;;110686;1250;41256;-59
2022/10/03 08:19:56;;;;;;;;;;;;;16.34;97046.40;;;;110658;1250;41615;-59
2022/10/03 08:22:43;;;;;;;;;;;;;16.42;97050.20;;;;111040;1247;41151;-59
2022/10/03 08:25:13;;;;;;;;;;;;;16.56;97046.40;;;;111005;1248;41260;-59
2022/10/03 08:27:52;;;;;;;;;;;;;16.60;97044.20;;;;110984;1249;41245;-59
2022/10/03 08:30:24;;;;;;;;;;;;;16.94;97042.40;;;;110864;1249;41148;-59
2022/10/03 08:33:09;;;;;;;;;;;;;17.20;97053.80;;;;111094;1248;41152;-60
2022/10/03 08:35:56;;;;;;;;;;;;;17.54;97057.20;;;;111088;1247;41264;-60
2022/10/03 08:38:42;;;;;;;;;;;;;17.98;97055.60;;;;111061;1247;41149;-60
2022/10/03 08:41:28;;;;;;;;;;;;;17.92;97053.00;;;;111054;1248;41184;-60
2022/10/03 08:44:16;;;;;;;;;;;;;18.14;97050.80;;;;111103;1248;41142;-59
2022/10/03 08:47:02;;;;;;;;;;;;;18.42;97057.20;;;;111075;1247;41405;-60
2022/10/03 08:49:39;;;;;;;;;;;;;18.48;97056.00;;;;111080;1247;42182;-60
2022/10/03 08:52:20;;;;;;;;;;;;;18.14;97064.80;;;;111083;1248;42071;-60
2022/10/03 08:54:56;;;;;;;;;;;;;17.58;97067.20;;;;111062;1247;41997;-60
2022/10/03 08:57:36;;;;;;;;;;;;;17.64;97067.40;;;;111069;1247;41167;-60
2022/10/03 09:00:15;;;;;;;;;;;;;18.28;97057.60;;;;111083;1248;41659;-61
2022/10/03 09:02:55;;;;;;;;;;;;;19.36;97054.20;;;;111081;1248;42560;-60
2022/10/03 09:06:01;;;;;;;;;;;;;20.52;97050.80;;;;111079;1248;41613;-60
2022/10/03 09:08:40;;;;;;;;;;;;;20.98;97035.40;;;;111073;1248;42293;-60
2022/10/03 09:11:26;;;;;;;;;;;;;21.46;97037.80;;;;111120;1247;41248;-60
2022/10/03 09:14:12;;;;;;;;;;;;;22.02;97039.80;;;;110712;1250;41261;-60
2022/10/03 09:16:43;;;;;;;;;;;;;22.56;97035.60;;;;111016;1247;41179;-60
2022/10/03 09:19:15;;;;;;;;;;;;;23.14;97031.00;;;;110778;1248;41174;-60
2022/10/03 09:21:48;;;;;;;;;;;;;22.96;97039.80;;;;111120;1248;42304;-60
2022/10/03 09:24:31;;;;;;;;;;;;;22.14;97050.60;;;;110915;1250;42233;-60
2022/10/03 09:27:17;;;;;;;;;;;;;21.96;97052.60;;;;111054;1249;41276;-60
2022/10/03 09:29:55;;;;;;;;;;;;;21.92;97048.40;;;;111038;1246;41636;-60
2022/10/03 09:32:41;;;;;;;;;;;;;22.04;97043.80;;;;110984;1249;41150;-60
2022/10/03 09:35:27;;;;;;;;;;;;;23.32;97051.00;;;;111109;1246;41148;-60
2022/10/03 09:38:13;;;;;;;;;;;;;24.08;97058.20;;;;111113;1247;41244;-60
2022/10/03 09:40:54;;;;;;;;;;;;;23.50;97063.40;;;;111069;1248;41503;-60
2022/10/03 09:43:25;;;;;;;;;;;;;22.80;97064.40;;;;111024;1247;41244;-60
2022/10/03 09:46:11;;;;;;;;;;;;;21.96;97070.20;;;;111108;1247;41251;-59
2022/10/03 09:48:41;;;;;;;;;;;;;21.50;97067.40;;;;111029;1248;41167;-60
2022/10/03 09:51:28;;;;;;;;;;;;;21.20;97081.60;;;;111102;1247;41638;-60
2022/10/03 09:53:58;;;;;;;;;;;;;21.02;97076.20;;;;111078;1248;41600;-60
2022/10/03 09:56:25;;;;;;;;;;;;;21.16;97065.60;;;;111041;1247;41305;-59
2022/10/03 09:59:12;;;;;;;;;;;;;21.26;97051.80;;;;111073;1248;41148;-60
2022/10/03 10:02:00;;;;;;;;;;;;;22.38;97067.20;;;;111076;1248;41255;-60
2022/10/03 10:04:40;;;;;;;;;;;;;24.00;97057.20;;;;110634;1248;42390;-60
2022/10/03 10:07:41;;;;;;;;;;;;;25.52;97046.80;;;;111065;1247;41710;-60
2022/10/03 10:10:23;;;;;;;;;;;;;27.02;97042.60;;;;111097;1248;41133;-60
2022/10/03 10:12:57;;;;;;;;;;;;;28.26;97057.80;;;;111082;1247;42545;-60
2022/10/03 10:15:39;;;;;;;;;;;;;28.22;97049.40;;;;111096;1247;41141;-60
2022/10/03 10:18:10;;;;;;;;;;;;;27.58;97041.60;;;;111064;1247;41150;-60
2022/10/03 10:20:40;;;;;;;;;;;;;28.18;97043.80;;;;111050;1247;41252;-60
2022/10/03 10:23:17;;;;;;;;;;;;;28.96;97042.40;;;;111097;1247;41559;-61
2022/10/03 10:25:48;;;;;;;;;;;;;29.52;97034.00;;;;110922;1248;41249;-60
2022/10/03 10:28:34;;;;;;;;;;;;;29.94;97042.00;;;;111123;1246;41416;-60
2022/10/03 10:31:07;;;;;;;;;;;;;30.64;97046.40;;;;111091;1247;41334;-60
2022/10/03 10:33:51;;;;;;;;;;;;;30.12;97053.00;;;;111118;1247;42140;-60
2022/10/03 10:36:37;;;;;;;;;;;;;29.74;97035.00;;;;111111;1247;41248;-60
2022/10/03 10:39:12;;;;;;;;;;;;;30.12;97041.20;;;;111108;1248;41122;-59
2022/10/03 10:42:00;;;;;;;;;;;;;29.30;97052.80;;;;111125;1247;41963;-59
2022/10/03 10:44:46;;;;;;;;;;;;;28.34;97064.00;;;;111061;1248;41230;-59
2022/10/03 10:47:34;;;;;;;;;;;;;27.88;97057.20;;;;111058;1247;41163;-59
2022/10/03 10:50:01;;;;;;;;;;;;;27.62;97055.40;;;;111059;1247;41179;-60
2022/10/03 10:52:32;;;;;;;;;;;;;26.82;97056.60;;;;111088;1248;43112;-60
2022/10/03 10:55:02;;;;;;;;;;;;;26.16;97063.20;;;;111047;1247;41143;-60
2022/10/03 10:57:44;;;;;;;;;;;;;25.84;97048.20;;;;111059;1247;41241;-60
2022/10/03 11:00:26;;;;;;;;;;;;;26.56;97047.60;;;;111031;1247;41150;-60
2022/10/03 11:03:22;;;;;;;;;;;;;27.02;97033.40;;;;111081;1247;41765;-60
2022/10/03 11:05:50;;;;;;;;;;;;;27.46;97038.60;;;;110820;1248;41181;-59
2022/10/03 11:08:33;;;;;;;;;;;;;26.20;97034.00;;;;111078;1247;41140;-59
2022/10/03 11:11:00;;;;;;;;;;;;;27.16;97044.20;;;;111098;1247;41764;-59
2022/10/03 11:13:45;;;;;;;;;;;;;27.28;97033.80;;;;111063;1247;41297;-60
2022/10/03 11:16:34;;;;;;;;;;;;;28.22;97036.00;;;;111064;1248;41144;-60
2022/10/03 11:19:16;;;;;;;;;;;;;28.90;97032.00;;;;111085;1247;41163;-60
2022/10/03 11:21:43;;;;;;;;;;;;;29.40;97049.00;;;;111034;1247;41712;-60
2022/10/03 11:24:35;;;;;;;;;;;;;28.90;97048.80;;;;111074;1247;41247;-60
2022/10/03 11:27:06;;;;;;;;;;;;;27.94;97052.80;;;;111083;1247;41248;-60
2022/10/03 11:29:52;;;;;;;;;;;;;26.44;97055.80;;;;111054;1248;41149;-60
2022/10/03 11:32:25;;;;;;;;;;;;;25.14;97041.00;;;;111052;1247;41270;-60
2022/10/03 11:35:11;;;;;;;;;;;;;24.72;97062.20;;;;111057;1247;41891;-60
2022/10/03 11:37:42;;;;;;;;;;;;;24.06;97053.00;;;;111090;1247;41199;-60
2022/10/03 11:40:19;;;;;;;;;;;;;24.78;97045.60;;;;111075;1247;41115;-61
2022/10/03 11:43:04;;;;;;;;;;;;;25.44;97057.60;;;;111058;1247;41611;-60
2022/10/03 11:45:43;;;;;;;;;;;;;25.00;97070.60;;;;111075;1247;41686;-61
2022/10/03 11:48:22;;;;;;;;;;;;;24.00;97085.40;;;;111093;1247;41273;-61
2022/10/03 11:51:09;;;;;;;;;;;;;23.26;97093.20;;;;111040;1247;41164;-58
2022/10/03 11:53:43;;;;;;;;;;;;;20.62;97106.20;;;;111134;1247;41497;-59
2022/10/03 11:56:15;;;;;;;;;;;;;19.24;97117.40;;;;111051;1247;41531;-60
2022/10/03 11:59:14;;;;;;;;;;;;;17.70;97132.60;;;;111108;1247;41135;-60
2022/10/03 12:01:59;;;;;;;;;;;;;16.52;97134.40;;;;110570;1246;42384;-59
2022/10/03 12:04:29;;;;;;;;;;;;;16.32;97135.60;;;;111060;1247;41257;-60
2022/10/03 12:10:10;;;;;;;;;;;;;15.72;97147.80;;;;111004;1249;41131;-60
2022/10/03 12:12:44;;;;;;;;;;;;;15.42;97163.00;;;;111058;1248;41388;-60
2022/10/03 12:15:17;;;;;;;;;;;;;15.12;97174.00;;;;111080;1248;41158;-60
2022/10/03 12:17:47;;;;;;;;;;;;;15.04;97155.80;;;;111033;1248;41188;-60
2022/10/03 12:20:18;;;;;;;;;;;;;15.12;97148.60;;;;111048;1248;41175;-60
2022/10/03 12:23:11;;;;;;;;;;;;;15.66;97135.20;;;;111050;1247;41825;-60
2022/10/03 12:25:39;;;;;;;;;;;;;16.20;97139.40;;;;110875;1249;41307;-60
2022/10/03 12:28:23;;;;;;;;;;;;;16.50;97131.20;;;;111068;1248;41187;-60
2022/10/03 12:30:55;;;;;;;;;;;;;16.74;97117.20;;;;111158;1248;41473;-60
2022/10/03 12:33:41;;;;;;;;;;;;;17.00;97113.00;;;;110987;1248;41252;-60
2022/10/03 12:36:16;;;;;;;;;;;;;17.20;97104.20;;;;111021;1247;41257;-60
2022/10/03 12:38:52;;;;;;;;;;;;;17.32;97100.00;;;;111057;1247;41264;-60
2022/10/03 12:41:39;;;;;;;;;;;;;17.60;97097.60;;;;111094;1248;41713;-60
2022/10/03 12:44:09;;;;;;;;;;;;;18.02;97092.20;;;;111010;1247;41440;-60
2022/10/03 12:46:50;;;;;;;;;;;;;18.46;97080.60;;;;111162;1246;41171;-61
2022/10/03 12:49:34;;;;;;;;;;;;;20.00;97081.40;;;;111115;1247;41132;-61
2022/10/03 12:52:01;;;;;;;;;;;;;22.00;97076.20;;;;111060;1247;41412;-58
2022/10/03 12:54:33;;;;;;;;;;;;;23.24;97064.60;;;;110906;1248;41246;-61
2022/10/03 12:57:00;;;;;;;;;;;;;24.32;97052.80;;;;110916;1248;41298;-59
2022/10/03 12:59:28;;;;;;;;;;;;;25.62;97052.20;;;;111047;1249;41560;-60
2022/10/03 13:01:55;;;;;;;;;;;;;26.98;97049.00;;;;110672;1247;41190;-60
2022/10/03 13:04:28;;;;;;;;;;;;;28.06;97051.80;;;;111123;1248;41265;-60
2022/10/03 13:07:04;;;;;;;;;;;;;28.08;97050.00;;;;110809;1248;41259;-60
2022/10/03 13:09:47;;;;;;;;;;;;;26.80;97050.60;;;;111065;1247;41267;-59
2022/10/03 13:12:17;;;;;;;;;;;;;25.56;97053.20;;;;111006;1248;41400;-60
2022/10/03 13:15:02;;;;;;;;;;;;;23.58;97061.80;;;;111105;1248;41532;-59
2022/10/03 13:17:35;;;;;;;;;;;;;22.34;97065.00;;;;110965;1249;42262;-59
2022/10/03 13:20:21;;;;;;;;;;;;;21.72;97066.60;;;;110890;1249;41590;-59
2022/10/03 13:23:15;;;;;;;;;;;;;20.94;97064.60;;;;110874;1249;42430;-59
2022/10/03 13:25:46;;;;;;;;;;;;;20.76;97068.80;;;;110966;1248;41264;-60
2022/10/03 13:28:20;;;;;;;;;;;;;20.60;97071.20;;;;111032;1249;41600;-61
2022/10/03 13:30:48;;;;;;;;;;;;;20.84;97070.20;;;;110740;1248;42054;-61
2022/10/03 13:33:17;;;;;;;;;;;;;20.16;97067.60;;;;111053;1249;41135;-61
2022/10/03 13:36:01;;;;;;;;;;;;;20.64;97071.80;;;;111013;1248;42300;-60
2022/10/03 13:38:46;;;;;;;;;;;;;20.70;97078.60;;;;111131;1247;41143;-60
2022/10/03 13:41:13;;;;;;;;;;;;;20.60;97079.20;;;;111211;1247;41538;-60
2022/10/03 13:43:41;;;;;;;;;;;;;20.50;97079.80;;;;111179;1247;41193;-60
2022/10/03 13:46:36;;;;;;;;;;;;;20.50;97076.00;;;;111008;1247;42398;-60
2022/10/03 13:49:09;;;;;;;;;;;;;20.32;97084.60;;;;110791;1249;41725;-60
2022/10/03 13:51:38;;;;;;;;;;;;;20.24;97090.60;;;;111012;1247;41143;-60
2022/10/03 13:54:06;;;;;;;;;;;;;20.10;97092.00;;;;111104;1247;41149;-61
2022/10/03 13:56:54;;;;;;;;;;;;;19.64;97100.20;;;;110970;1249;41177;-61
2022/10/03 13:59:28;;;;;;;;;;;;;19.16;97096.20;;;;111052;1248;42055;-60
2022/10/03 14:01:55;;;;;;;;;;;;;18.80;97093.80;;;;111052;1248;41618;-60
2022/10/03 14:04:35;;;;;;;;;;;;;18.50;97098.20;;;;111053;1247;42376;-60
2022/10/03 14:07:21;;;;;;;;;;;;;18.40;97097.20;;;;111030;1248;41980;-60
2022/10/03 14:10:07;;;;;;;;;;;;;18.10;97101.00;;;;111017;1247;41230;-61
2022/10/03 14:12:34;;;;;;;;;;;;;17.80;97098.60;;;;111073;1248;41152;-60
2022/10/03 14:15:23;;;;;;;;;;;;;17.74;97096.00;;;;111111;1249;41694;-61
2022/10/03 14:17:55;;;;;;;;;;;;;17.70;97102.40;;;;110710;1248;41143;-60
2022/10/03 14:20:30;;;;;;;;;;;;;17.70;97113.80;;;;111078;1248;42068;-60
2022/10/03 14:23:04;;;;;;;;;;;;;17.50;97132.40;;;;111093;1248;41311;-61
2022/10/03 14:25:37;;;;;;;;;;;;;17.40;97141.40;;;;111064;1247;41155;-61
2022/10/03 14:28:16;;;;;;;;;;;;;17.30;97148.20;;;;111066;1247;41153;-60
2022/10/03 14:30:56;;;;;;;;;;;;;17.34;97161.00;;;;111063;1247;41845;-60
2022/10/03 14:33:35;;;;;;;;;;;;;17.30;97184.60;;;;111093;1247;41250;-60
2022/10/03 14:36:08;;;;;;;;;;;;;16.86;97215.40;;;;111049;1248;41598;-60
2022/10/03 14:38:56;;;;;;;;;;;;;15.96;97210.80;;;;111032;1246;41609;-60
2022/10/03 14:41:27;;;;;;;;;;;;;14.94;97222.20;;;;111076;1247;41828;-60
2022/10/03 14:43:54;;;;;;;;;;;;;14.48;97221.80;;;;111087;1247;41139;-60
2022/10/03 14:46:23;;;;;;;;;;;;;14.20;97227.80;;;;111085;1247;41284;-60
2022/10/03 14:48:51;;;;;;;;;;;;;14.00;97216.20;;;;111064;1247;41249;-60